createdAt,value
2022-11-05T00:00:12.669Z,99112.62
2022-11-05T00:02:59.307Z,99132.75
2022-11-05T00:05:45.457Z,99117.94
2022-11-05T00:08:33.977Z,99105.03
2022-11-05T00:11:02.560Z,99114.31
2022-11-05T00:13:49.233Z,99111.13
2022-11-05T00:16:35.743Z,99109.03
2022-11-05T00:19:07.106Z,99096.38
2022-11-05T00:21:54.661Z,99099.00
2022-11-05T00:24:42.753Z,99094.09
2022-11-05T00:27:10.660Z,99090.62
2022-11-05T00:29:38.760Z,99098.34
2022-11-05T00:32:06.275Z,99107.69
2022-11-05T00:34:34.558Z,99097.50
2022-11-05T00:37:02.676Z,99101.34
2022-11-05T00:39:31.165Z,99106.00
2022-11-05T00:42:18.652Z,99107.69
2022-11-05T00:45:02.288Z,99106.09
2022-11-05T00:48:07.963Z,99104.63
2022-11-05T00:50:37.305Z,99103.66
2022-11-05T00:53:06.699Z,99096.34
2022-11-05T00:55:40.196Z,99099.97
2022-11-05T00:58:14.132Z,99094.87
2022-11-05T01:00:48.677Z,99092.63
2022-11-05T01:03:18.209Z,99100.28
2022-11-05T01:05:48.879Z,99102.56
2022-11-05T01:08:21.342Z,99110.00
2022-11-05T01:10:52.062Z,99099.72
2022-11-05T01:13:30.829Z,99110.66
2022-11-05T01:15:58.420Z,99105.47
2022-11-05T01:18:26.170Z,99109.44
2022-11-05T01:20:54.107Z,99111.38
2022-11-05T01:23:22.015Z,99117.72
2022-11-05T01:25:51.781Z,99116.31
2022-11-05T01:28:19.723Z,99118.78
2022-11-05T01:30:55.570Z,99104.13
2022-11-05T01:33:24.094Z,99108.44
2022-11-05T01:35:51.868Z,99101.50
2022-11-05T01:38:19.838Z,99095.38
2022-11-05T01:40:47.724Z,99106.16
2022-11-05T01:43:23.234Z,99109.25
2022-11-05T01:45:54.392Z,99120.72
2022-11-05T01:48:26.011Z,99129.72
2022-11-05T01:50:57.921Z,99138.38
2022-11-05T01:53:37.288Z,99132.78
2022-11-05T01:56:17.091Z,99139.41
2022-11-05T01:58:52.232Z,99130.94
2022-11-05T02:01:20.658Z,99132.22
2022-11-05T02:03:50.828Z,99123.28
2022-11-05T02:06:19.821Z,99131.84
2022-11-05T02:09:11.978Z,99137.22
2022-11-05T02:11:45.126Z,99145.50
2022-11-05T02:14:12.975Z,99141.88
2022-11-05T02:16:50.031Z,99147.72
2022-11-05T02:19:40.089Z,99156.63
2022-11-05T02:22:10.438Z,99149.66
2022-11-05T02:25:26.881Z,99144.84
2022-11-05T02:28:21.294Z,99142.66
2022-11-05T02:31:10.580Z,99135.59
2022-11-05T02:33:56.772Z,99143.34
2022-11-05T02:36:47.198Z,99140.78
2022-11-05T02:39:25.088Z,99156.69
2022-11-05T02:42:12.123Z,99148.59
2022-11-05T02:44:45.899Z,99152.78
2022-11-05T02:47:19.772Z,99153.06
2022-11-05T02:50:09.332Z,99153.72
2022-11-05T02:52:54.237Z,99165.13
2022-11-05T02:55:38.601Z,99156.22
2022-11-05T02:58:12.349Z,99160.91
2022-11-05T03:00:53.224Z,99160.38
2022-11-05T03:03:29.554Z,99158.25
2022-11-05T03:06:39.276Z,99163.63
2022-11-05T03:09:37.915Z,99163.81
2022-11-05T03:12:26.196Z,99159.88
2022-11-05T03:15:12.351Z,99158.41
2022-11-05T03:17:58.433Z,99156.81
2022-11-05T03:20:41.150Z,99172.94
2022-11-05T03:23:11.567Z,99164.28
2022-11-05T03:25:45.513Z,99161.22
2022-11-05T03:28:14.853Z,99180.66
2022-11-05T03:30:43.411Z,99189.84
2022-11-05T03:33:18.788Z,99185.34
2022-11-05T03:35:48.620Z,99185.78
2022-11-05T03:38:24.063Z,99182.19
2022-11-05T03:40:54.374Z,99184.06
2022-11-05T03:43:24.965Z,99183.38
2022-11-05T03:46:02.525Z,99178.25
2022-11-05T03:48:32.012Z,99189.25
2022-11-05T03:51:17.200Z,99190.56
2022-11-05T03:53:50.637Z,99198.72
2022-11-05T03:56:24.108Z,99191.72
2022-11-05T03:58:57.608Z,99193.47
2022-11-05T04:01:28.416Z,99196.78
2022-11-05T04:03:57.212Z,99201.13
2022-11-05T04:06:43.775Z,99193.44
2022-11-05T04:09:32.362Z,99186.06
2022-11-05T04:12:18.500Z,99176.78
2022-11-05T04:14:46.246Z,99173.47
2022-11-05T04:17:14.316Z,99180.50
2022-11-05T04:20:02.253Z,99181.25
2022-11-05T04:22:51.456Z,99185.06
2022-11-05T04:25:20.382Z,99193.63
2022-11-05T04:27:48.891Z,99185.44
2022-11-05T04:30:21.865Z,99177.03
2022-11-05T04:32:57.057Z,99182.78
2022-11-05T04:35:26.173Z,99175.88
2022-11-05T04:37:56.235Z,99175.22
2022-11-05T04:40:26.153Z,99168.09
2022-11-05T04:42:55.477Z,99165.75
2022-11-05T04:45:25.708Z,99167.69
2022-11-05T04:47:55.454Z,99170.69
2022-11-05T04:50:23.776Z,99172.97
2022-11-05T04:52:52.734Z,99173.59
2022-11-05T04:55:20.789Z,99174.88
2022-11-05T04:57:52.246Z,99176.69
2022-11-05T05:00:21.853Z,99176.88
2022-11-05T05:02:50.241Z,99171.50
2022-11-05T05:05:21.350Z,99176.56
2022-11-05T05:07:48.909Z,99162.91
2022-11-05T05:10:16.788Z,99171.50
2022-11-05T05:12:45.324Z,99167.53
2022-11-05T05:15:13.257Z,99160.97
2022-11-05T05:17:40.972Z,99157.00
2022-11-05T05:20:27.790Z,99164.34
2022-11-05T05:22:55.500Z,99173.50
2022-11-05T05:25:24.257Z,99186.63
2022-11-05T05:27:52.525Z,99184.34
2022-11-05T05:30:20.729Z,99194.44
2022-11-05T05:32:52.469Z,99201.19
2022-11-05T05:35:21.675Z,99192.06
2022-11-05T05:38:04.112Z,99202.13
2022-11-05T05:40:32.625Z,99199.03
2022-11-05T05:43:00.807Z,99195.88
2022-11-05T05:45:28.681Z,99198.53
2022-11-05T05:47:59.844Z,99200.06
2022-11-05T05:50:27.735Z,99208.78
2022-11-05T05:52:59.291Z,99213.72
2022-11-05T05:55:31.313Z,99217.44
2022-11-05T05:58:01.714Z,99233.31
2022-11-05T06:00:33.537Z,99240.59
2022-11-05T06:03:09.467Z,99240.66
2022-11-05T06:05:44.212Z,99254.94
2022-11-05T06:08:14.419Z,99260.56
2022-11-05T06:10:48.542Z,99263.22
2022-11-05T06:13:19.326Z,99276.44
2022-11-05T06:15:47.152Z,99274.84
2022-11-05T06:18:17.346Z,99274.63
2022-11-05T06:20:47.483Z,99280.81
2022-11-05T06:23:15.237Z,99285.53
2022-11-05T06:25:44.050Z,99297.91
2022-11-05T06:28:15.088Z,99298.16
2022-11-05T06:30:43.988Z,99295.81
2022-11-05T06:33:15.161Z,99298.25
2022-11-05T06:35:44.950Z,99299.22
2022-11-05T06:38:13.073Z,99292.59
2022-11-05T06:40:43.354Z,99306.44
2022-11-05T06:43:12.403Z,99302.38
2022-11-05T06:45:40.460Z,99301.22
2022-11-05T06:48:08.721Z,99298.75
2022-11-05T06:50:38.523Z,99308.37
2022-11-05T06:53:13.522Z,99316.94
2022-11-05T06:55:48.020Z,99326.38
2022-11-05T06:58:20.450Z,99325.75
2022-11-05T07:00:51.157Z,99321.72
2022-11-05T07:03:22.264Z,99322.28
2022-11-05T07:05:51.428Z,99322.31
2022-11-05T07:08:20.369Z,99329.84
2022-11-05T07:11:00.196Z,99337.03
2022-11-05T07:13:40.228Z,99336.47
2022-11-05T07:16:09.594Z,99336.19
2022-11-05T07:18:38.646Z,99333.97
2022-11-05T07:21:11.294Z,99335.25
2022-11-05T07:23:45.034Z,99344.47
2022-11-05T07:26:17.635Z,99339.25
2022-11-05T07:28:45.875Z,99341.62
2022-11-05T07:31:17.290Z,99348.25
2022-11-05T07:33:47.188Z,99341.09
2022-11-05T07:36:15.133Z,99344.72
2022-11-05T07:38:44.225Z,99346.37
2022-11-05T07:41:14.407Z,99336.69
2022-11-05T07:43:49.872Z,99336.78
2022-11-05T07:46:20.469Z,99339.63
2022-11-05T07:48:55.370Z,99342.25
2022-11-05T07:51:28.128Z,99344.00
2022-11-05T07:53:58.362Z,99346.78
2022-11-05T07:56:32.222Z,99346.16
2022-11-05T07:59:02.387Z,99339.22
2022-11-05T08:01:32.722Z,99346.91
2022-11-05T08:04:02.388Z,99348.94
2022-11-05T08:06:37.211Z,99340.94
2022-11-05T08:09:07.110Z,99332.97
2022-11-05T08:11:38.360Z,99334.41
2022-11-05T08:14:09.204Z,99327.94
2022-11-05T08:16:39.391Z,99335.03
2022-11-05T08:19:08.607Z,99331.75
2022-11-05T08:21:37.212Z,99318.19
2022-11-05T08:24:08.253Z,99312.97
2022-11-05T08:26:44.186Z,99318.53
2022-11-05T08:29:12.197Z,99312.63
2022-11-05T08:31:40.294Z,99306.69
2022-11-05T08:34:09.445Z,99309.28
2022-11-05T08:36:42.095Z,99319.56
2022-11-05T08:39:16.707Z,99324.94
2022-11-05T08:41:48.181Z,99329.53
2022-11-05T08:46:57.563Z,99321.78
2022-11-05T08:49:26.466Z,99329.03
2022-11-05T08:51:56.207Z,99331.25
2022-11-05T08:54:32.112Z,99342.72
2022-11-05T08:57:02.400Z,99346.31
2022-11-05T08:59:31.848Z,99334.09
2022-11-05T09:02:02.828Z,99344.78
2022-11-05T09:04:38.183Z,99351.69
2022-11-05T09:07:07.527Z,99352.25
2022-11-05T09:09:36.962Z,99357.66
2022-11-05T09:12:12.426Z,99359.06
2022-11-05T09:14:45.334Z,99359.28
2022-11-05T09:17:19.909Z,99365.97
2022-11-05T09:19:50.294Z,99361.97
2022-11-05T09:22:27.102Z,99362.13
2022-11-05T09:24:58.201Z,99369.50
2022-11-05T09:27:27.170Z,99370.88
2022-11-05T09:30:03.078Z,99368.19
2022-11-05T09:32:33.177Z,99376.84
2022-11-05T09:35:09.196Z,99374.91
2022-11-05T09:37:38.852Z,99376.44
2022-11-05T09:40:14.300Z,99367.22
2022-11-05T09:42:53.131Z,99357.66
2022-11-05T09:45:27.269Z,99358.31
2022-11-05T09:47:59.289Z,99356.34
2022-11-05T09:50:42.075Z,99342.84
2022-11-05T09:53:15.376Z,99352.97
2022-11-05T09:55:49.496Z,99351.44
2022-11-05T09:58:44.119Z,99356.16
2022-11-05T10:01:23.250Z,99361.56
2022-11-05T10:03:57.356Z,99354.84
2022-11-05T10:06:27.115Z,99354.19
2022-11-05T10:09:02.142Z,99347.53
2022-11-05T10:11:41.517Z,99339.88
2022-11-05T10:14:21.370Z,99350.66
2022-11-05T10:16:59.610Z,99349.34
2022-11-05T10:20:11.816Z,99349.53
2022-11-05T10:22:49.675Z,99352.63
2022-11-05T10:25:22.459Z,99345.50
2022-11-05T10:27:58.204Z,99341.03
2022-11-05T10:30:31.098Z,99335.69
2022-11-05T10:33:07.226Z,99332.03
2022-11-05T10:35:43.629Z,99340.47
2022-11-05T10:38:23.279Z,99331.25
2022-11-05T10:41:38.069Z,99327.31
2022-11-05T10:44:32.148Z,99338.50
2022-11-05T10:47:26.218Z,99336.88
2022-11-05T10:50:06.170Z,99344.16
2022-11-05T10:52:54.421Z,99346.28
2022-11-05T10:55:32.105Z,99340.03
2022-11-05T10:58:22.223Z,99350.50
2022-11-05T11:00:53.933Z,99360.00
2022-11-05T11:03:45.098Z,99360.63
2022-11-05T11:06:24.546Z,99362.97
2022-11-05T11:08:53.933Z,99350.56
2022-11-05T11:11:35.982Z,99357.81
2022-11-05T11:14:19.795Z,99339.97
2022-11-05T11:16:59.390Z,99348.38
2022-11-05T11:19:34.337Z,99346.28
2022-11-05T11:22:05.857Z,99345.25
2022-11-05T11:24:42.427Z,99350.69
2022-11-05T11:27:23.029Z,99345.37
2022-11-05T11:29:58.423Z,99351.09
2022-11-05T11:32:43.095Z,99351.25
2022-11-05T11:35:23.714Z,99355.81
2022-11-05T11:37:54.369Z,99353.63
2022-11-05T11:40:31.457Z,99343.75
2022-11-05T11:43:02.118Z,99329.87
2022-11-05T11:45:50.072Z,99334.78
2022-11-05T11:48:30.392Z,99331.19
2022-11-05T11:51:04.089Z,99338.72
2022-11-05T11:53:47.285Z,99348.03
2022-11-05T11:56:21.256Z,99331.44
2022-11-05T11:58:57.389Z,99347.88
2022-11-05T12:01:42.561Z,99356.94
2022-11-05T12:04:34.540Z,99358.13
2022-11-05T12:07:18.423Z,99356.25
2022-11-05T12:10:02.246Z,99345.41
2022-11-05T12:12:47.984Z,99355.97
2022-11-05T12:15:43.088Z,99352.50
2022-11-05T12:18:39.890Z,99352.56
2022-11-05T12:21:41.078Z,99372.00
2022-11-05T12:24:30.171Z,99369.31
2022-11-05T12:27:24.038Z,99382.66
2022-11-05T12:30:01.681Z,99382.44
2022-11-05T12:32:59.631Z,99389.06
2022-11-05T12:35:36.064Z,99380.38
2022-11-05T12:38:20.905Z,99381.69
2022-11-05T12:41:07.901Z,99378.19
2022-11-05T12:44:19.373Z,99374.84
2022-11-05T12:47:26.127Z,99379.59
2022-11-05T12:50:09.074Z,99381.34
2022-11-05T12:53:08.178Z,99389.94
2022-11-05T12:55:47.092Z,99391.84
2022-11-05T12:58:28.318Z,99403.66
2022-11-05T13:01:07.221Z,99409.50
2022-11-05T13:03:54.225Z,99408.00
2022-11-05T13:06:34.285Z,99413.94
2022-11-05T13:09:13.252Z,99408.25
2022-11-05T13:11:47.905Z,99412.53
2022-11-05T13:14:49.352Z,99401.03
2022-11-05T13:17:26.268Z,99413.75
2022-11-05T13:20:20.108Z,99425.06
2022-11-05T13:23:07.289Z,99423.56
2022-11-05T13:25:47.120Z,99413.81
2022-11-05T13:28:39.883Z,99432.84
2022-11-05T13:31:15.624Z,99433.78
2022-11-05T13:33:47.292Z,99429.37
2022-11-05T13:36:51.098Z,99429.13
2022-11-05T13:39:51.002Z,99419.84
2022-11-05T13:42:36.229Z,99426.12
2022-11-05T13:45:43.309Z,99427.56
2022-11-05T13:48:35.077Z,99423.72
2022-11-05T13:51:10.146Z,99432.28
2022-11-05T13:54:08.217Z,99435.78
2022-11-05T13:56:53.292Z,99434.38
2022-11-05T13:59:52.373Z,99424.34
2022-11-05T14:02:26.714Z,99433.31
2022-11-05T14:05:01.280Z,99431.72
2022-11-05T14:07:38.366Z,99426.12
2022-11-05T14:10:28.148Z,99428.78
2022-11-05T14:13:01.293Z,99430.50
2022-11-05T14:15:40.747Z,99425.97
2022-11-05T14:18:40.245Z,99433.69
2022-11-05T14:21:26.455Z,99439.84
2022-11-05T14:23:59.075Z,99430.94
2022-11-05T14:26:30.914Z,99439.69
2022-11-05T14:29:06.357Z,99439.97
2022-11-05T14:32:11.538Z,99447.47
2022-11-05T14:35:17.964Z,99440.69
2022-11-05T14:37:52.984Z,99443.59
2022-11-05T14:40:38.951Z,99453.06
2022-11-05T14:43:24.879Z,99462.84
2022-11-05T14:46:07.281Z,99458.84
2022-11-05T14:48:46.077Z,99468.34
2022-11-05T14:54:42.400Z,99462.84
2022-11-05T14:57:16.328Z,99469.47
2022-11-05T14:59:58.105Z,99477.34
2022-11-05T15:02:39.532Z,99476.50
2022-11-05T15:05:40.628Z,99474.19
2022-11-05T15:08:28.067Z,99480.72
2022-11-05T15:11:17.471Z,99482.00
2022-11-05T15:13:58.900Z,99480.06
2022-11-05T15:16:32.113Z,99486.66
2022-11-05T15:19:22.040Z,99491.84
2022-11-05T15:21:53.638Z,99491.28
2022-11-05T15:24:33.054Z,99495.06
2022-11-05T15:27:07.037Z,99505.22
2022-11-05T15:29:36.093Z,99502.94
2022-11-05T15:32:06.474Z,99507.03
2022-11-05T15:34:35.925Z,99502.38
2022-11-05T15:37:16.210Z,99503.03
2022-11-05T15:39:50.073Z,99510.12
2022-11-05T15:42:25.873Z,99504.94
2022-11-05T15:44:56.392Z,99509.12
2022-11-05T15:47:28.825Z,99503.59
2022-11-05T15:50:10.020Z,99514.59
2022-11-05T15:52:54.095Z,99525.97
2022-11-05T15:55:27.463Z,99525.12
2022-11-05T15:58:08.130Z,99521.59
2022-11-05T16:03:22.476Z,99532.03
2022-11-05T16:05:51.992Z,99534.19
2022-11-05T16:08:29.220Z,99528.63
2022-11-05T16:11:03.275Z,99541.75
2022-11-05T16:13:37.125Z,99537.50
2022-11-05T16:16:21.298Z,99551.03
2022-11-05T16:18:49.605Z,99550.16
2022-11-05T16:21:30.301Z,99543.09
2022-11-05T16:24:00.649Z,99552.72
2022-11-05T16:29:39.246Z,99561.13
2022-11-05T16:37:36.024Z,99571.03
2022-11-05T16:40:16.492Z,99575.63
2022-11-05T16:42:54.574Z,99570.00
2022-11-05T16:45:27.078Z,99579.69
2022-11-05T16:48:00.197Z,99576.09
2022-11-05T16:50:39.143Z,99585.50
2022-11-05T16:58:27.782Z,99592.94
2022-11-05T17:01:10.665Z,99595.28
2022-11-05T17:03:44.551Z,99595.75
2022-11-05T17:06:16.142Z,99598.34
2022-11-05T17:08:51.311Z,99610.44
2022-11-05T17:11:21.767Z,99609.63
2022-11-05T17:14:00.857Z,99600.25
2022-11-05T17:16:48.113Z,99604.97
2022-11-05T17:19:20.203Z,99604.06
2022-11-05T17:21:53.101Z,99602.63
2022-11-05T17:24:25.192Z,99603.50
2022-11-05T17:27:02.069Z,99610.56
2022-11-05T17:29:31.879Z,99619.34
2022-11-05T17:32:10.560Z,99617.28
2022-11-05T17:34:40.675Z,99621.06
2022-11-05T17:37:13.558Z,99620.69
2022-11-05T17:39:45.693Z,99621.97
2022-11-05T17:42:18.131Z,99617.12
2022-11-05T17:47:28.097Z,99618.16
2022-11-05T17:49:57.377Z,99616.41
2022-11-05T17:52:28.278Z,99628.81
2022-11-05T17:54:55.927Z,99628.91
2022-11-05T17:57:25.057Z,99624.25
2022-11-05T17:59:53.221Z,99629.19
2022-11-05T18:02:22.187Z,99625.88
2022-11-05T18:04:50.291Z,99631.88
2022-11-05T18:07:23.108Z,99630.34
2022-11-05T18:10:03.539Z,99634.38
2022-11-05T18:12:38.886Z,99635.37
2022-11-05T18:15:16.261Z,99635.28
2022-11-05T18:17:56.052Z,99638.03
2022-11-05T18:20:25.695Z,99636.72
2022-11-05T18:22:56.073Z,99639.56
2022-11-05T18:25:28.213Z,99649.00
2022-11-05T18:27:58.510Z,99653.78
2022-11-05T18:30:32.045Z,99662.16
2022-11-05T18:33:03.022Z,99663.31
2022-11-05T18:35:33.140Z,99669.91
2022-11-05T18:38:15.338Z,99673.94
2022-11-05T18:40:45.500Z,99678.72
2022-11-05T18:43:14.213Z,99681.31
2022-11-05T18:45:43.650Z,99672.41
2022-11-05T18:48:28.310Z,99691.59
2022-11-05T18:51:01.849Z,99692.25
2022-11-05T18:53:41.215Z,99690.97
2022-11-05T18:56:36.080Z,99689.97
2022-11-05T19:01:58.759Z,99690.13
2022-11-05T19:04:28.510Z,99701.41
2022-11-05T19:07:13.069Z,99707.06
2022-11-05T19:09:50.133Z,99702.50
2022-11-05T19:12:26.500Z,99705.00
2022-11-05T19:15:02.135Z,99707.66
2022-11-05T19:17:34.664Z,99720.47
2022-11-05T19:20:26.127Z,99719.72
2022-11-05T19:23:12.551Z,99724.59
2022-11-05T19:28:22.239Z,99724.13
2022-11-05T19:30:54.012Z,99726.22
2022-11-05T19:33:24.425Z,99737.78
2022-11-05T19:35:52.637Z,99745.53
2022-11-05T19:38:24.092Z,99744.63
2022-11-05T19:40:53.153Z,99745.81
2022-11-05T19:43:26.469Z,99747.88
2022-11-05T19:45:58.185Z,99748.03
2022-11-05T19:48:34.263Z,99743.59
2022-11-05T19:51:07.339Z,99755.88
2022-11-05T19:53:42.084Z,99755.75
2022-11-05T19:56:31.266Z,99762.66
2022-11-05T19:59:08.110Z,99770.41
2022-11-05T20:01:45.314Z,99770.03
2022-11-05T20:04:14.244Z,99776.69
2022-11-05T20:06:44.562Z,99780.19
2022-11-05T20:09:22.512Z,99780.37
2022-11-05T20:11:54.649Z,99779.19
2022-11-05T20:14:26.040Z,99785.59
2022-11-05T20:16:55.189Z,99784.12
2022-11-05T20:19:56.322Z,99788.81
2022-11-05T20:22:26.292Z,99799.53
2022-11-05T20:24:56.552Z,99793.94
2022-11-05T20:27:42.929Z,99798.00
2022-11-05T20:32:58.007Z,99801.06
2022-11-05T20:35:44.122Z,99799.28
2022-11-05T20:38:16.849Z,99801.06
2022-11-05T20:40:46.734Z,99811.81
2022-11-05T20:43:24.750Z,99808.59
2022-11-05T20:46:04.538Z,99816.72
2022-11-05T20:48:35.392Z,99808.44
2022-11-05T20:51:09.167Z,99821.44
2022-11-05T20:54:01.333Z,99811.94
2022-11-05T20:56:38.089Z,99809.09
2022-11-05T20:59:06.887Z,99824.78
2022-11-05T21:01:47.125Z,99817.66
2022-11-05T21:04:15.311Z,99820.78
2022-11-05T21:06:44.498Z,99816.91
2022-11-05T21:09:13.027Z,99827.88
2022-11-05T21:14:35.852Z,99829.16
2022-11-05T21:17:10.255Z,99827.19
2022-11-05T21:19:43.046Z,99826.56
2022-11-05T21:22:19.217Z,99823.81
2022-11-05T21:24:52.019Z,99835.53
2022-11-05T21:27:20.063Z,99838.47
2022-11-05T21:29:57.164Z,99836.81
2022-11-05T21:32:27.088Z,99829.16
2022-11-05T21:34:57.073Z,99830.91
2022-11-05T21:37:26.045Z,99825.72
2022-11-05T21:39:56.096Z,99834.28
2022-11-05T21:42:34.030Z,99839.22
2022-11-05T21:45:02.916Z,99838.47
2022-11-05T21:47:33.516Z,99841.28
2022-11-05T21:50:03.289Z,99837.53
2022-11-05T21:52:50.072Z,99840.66
2022-11-05T21:55:24.138Z,99842.81
2022-11-05T21:58:13.189Z,99840.50
2022-11-05T22:00:43.297Z,99840.53
2022-11-05T22:03:18.318Z,99834.25
2022-11-05T22:05:51.717Z,99843.78
2022-11-05T22:08:24.046Z,99838.72
2022-11-05T22:10:53.156Z,99837.69
2022-11-05T22:13:23.729Z,99840.94
2022-11-05T22:15:57.181Z,99842.72
2022-11-05T22:18:26.540Z,99839.75
2022-11-05T22:20:56.264Z,99837.38
2022-11-05T22:23:31.459Z,99835.13
2022-11-05T22:26:00.811Z,99852.69
2022-11-05T22:28:30.103Z,99840.53
2022-11-05T22:30:58.342Z,99844.59
2022-11-05T22:33:28.089Z,99843.78
2022-11-05T22:35:58.358Z,99839.81
2022-11-05T22:38:30.951Z,99840.25
2022-11-05T22:41:13.087Z,99844.72
2022-11-05T22:43:43.297Z,99848.03
2022-11-05T22:46:37.790Z,99849.69
2022-11-05T22:49:07.472Z,99844.88
2022-11-05T22:51:36.959Z,99857.69
2022-11-05T22:54:08.948Z,99850.28
2022-11-05T22:56:39.977Z,99845.94
2022-11-05T22:59:14.356Z,99843.09
2022-11-05T23:02:12.400Z,99847.47
2022-11-05T23:04:52.080Z,99855.47
2022-11-05T23:08:15.854Z,99857.97
2022-11-05T23:11:17.096Z,99858.66
2022-11-05T23:14:09.951Z,99859.94
2022-11-05T23:17:36.660Z,99853.69
2022-11-05T23:21:17.963Z,99860.53
2022-11-05T23:24:06.377Z,99867.06
2022-11-05T23:26:54.495Z,99857.44
2022-11-05T23:29:25.157Z,99864.13
2022-11-05T23:32:14.716Z,99867.28
2022-11-05T23:34:43.525Z,99870.56
2022-11-05T23:37:49.915Z,99873.69
2022-11-05T23:40:20.695Z,99866.34
2022-11-05T23:45:48.378Z,99874.44
2022-11-05T23:48:37.267Z,99875.12
2022-11-05T23:51:27.602Z,99872.09
2022-11-05T23:54:14.384Z,99876.00
2022-11-05T23:56:58.314Z,99873.59
2022-11-05T23:59:38.204Z,99871.25
